createdAt,value
2022-10-24T00:00:38.541Z,15.38
2022-10-24T00:01:38.493Z,15.36
2022-10-24T00:02:38.508Z,15.38
2022-10-24T00:03:38.448Z,15.39
2022-10-24T00:04:38.432Z,15.39
2022-10-24T00:05:38.467Z,15.39
2022-10-24T00:06:38.657Z,15.39
2022-10-24T00:07:38.412Z,15.38
2022-10-24T00:08:38.388Z,15.38
2022-10-24T00:09:38.386Z,15.36
2022-10-24T00:10:38.352Z,15.33
2022-10-24T00:11:38.346Z,15.30
2022-10-24T00:12:38.329Z,15.27
2022-10-24T00:13:38.320Z,15.26
2022-10-24T00:14:38.312Z,15.24
2022-10-24T00:15:38.293Z,15.21
2022-10-24T00:16:38.269Z,15.21
2022-10-24T00:17:38.301Z,15.21
2022-10-24T00:18:38.252Z,15.20
2022-10-24T00:19:38.230Z,15.19
2022-10-24T00:20:38.288Z,15.17
2022-10-24T00:21:38.208Z,15.17
2022-10-24T00:22:38.205Z,15.13
2022-10-24T00:23:38.180Z,15.15
2022-10-24T00:24:38.159Z,15.12
2022-10-24T00:25:38.157Z,15.11
2022-10-24T00:26:38.148Z,15.09
2022-10-24T00:27:38.147Z,15.08
2022-10-24T00:28:38.109Z,15.08
2022-10-24T00:29:38.098Z,15.08
2022-10-24T00:30:38.086Z,15.06
2022-10-24T00:31:38.102Z,15.08
2022-10-24T00:32:38.065Z,15.06
2022-10-24T00:33:38.045Z,15.03
2022-10-24T00:34:38.040Z,15.03
2022-10-24T00:35:38.022Z,15.03
2022-10-24T00:36:38.005Z,15.03
2022-10-24T00:37:38.014Z,15.06
2022-10-24T00:38:37.983Z,15.03
2022-10-24T00:39:37.963Z,15.03
2022-10-24T00:40:37.953Z,15.03
2022-10-24T00:41:37.949Z,15.06
2022-10-24T00:42:37.955Z,15.06
2022-10-24T00:43:37.918Z,15.06
2022-10-24T00:44:37.918Z,15.05
2022-10-24T00:45:37.888Z,15.05
2022-10-24T00:46:37.867Z,15.01
2022-10-24T00:47:37.873Z,15.01
2022-10-24T00:48:37.849Z,14.99
2022-10-24T00:49:37.847Z,14.95
2022-10-24T00:50:37.825Z,14.95
2022-10-24T00:51:37.814Z,14.94
2022-10-24T00:52:37.799Z,14.93
2022-10-24T00:53:37.782Z,14.91
2022-10-24T00:54:37.767Z,14.93
2022-10-24T00:55:37.756Z,14.93
2022-10-24T00:56:37.737Z,14.91
2022-10-24T00:57:37.751Z,14.91
2022-10-24T00:58:37.723Z,14.91
2022-10-24T00:59:37.702Z,14.91
2022-10-24T01:00:37.739Z,14.87
2022-10-24T01:01:37.734Z,14.88
2022-10-24T01:02:37.668Z,14.88
2022-10-24T01:03:37.658Z,14.87
2022-10-24T01:04:37.632Z,14.87
2022-10-24T01:05:37.622Z,14.86
2022-10-24T01:06:37.615Z,14.84
2022-10-24T01:07:37.607Z,14.78
2022-10-24T01:08:37.584Z,14.75
2022-10-24T01:09:37.587Z,14.78
2022-10-24T01:10:37.557Z,14.72
2022-10-24T01:11:37.546Z,14.69
2022-10-24T01:12:37.543Z,14.68
2022-10-24T01:13:37.514Z,14.67
2022-10-24T01:14:37.491Z,14.64
2022-10-24T01:15:37.490Z,14.64
2022-10-24T01:16:37.489Z,14.62
2022-10-24T01:17:37.460Z,14.60
2022-10-24T01:18:37.460Z,14.56
2022-10-24T01:19:37.446Z,14.56
2022-10-24T01:20:37.419Z,14.54
2022-10-24T01:21:37.426Z,14.54
2022-10-24T01:22:37.411Z,14.53
2022-10-24T01:23:37.398Z,14.53
2022-10-24T01:24:37.386Z,14.54
2022-10-24T01:25:37.354Z,14.49
2022-10-24T01:26:37.467Z,14.47
2022-10-24T01:27:37.329Z,14.47
2022-10-24T01:28:37.326Z,14.47
2022-10-24T01:29:37.314Z,14.53
2022-10-24T01:30:37.302Z,14.53
2022-10-24T01:31:37.270Z,14.57
2022-10-24T01:32:37.254Z,14.60
2022-10-24T01:33:37.278Z,14.61
2022-10-24T01:34:37.241Z,14.60
2022-10-24T01:35:37.344Z,14.57
2022-10-24T01:36:37.213Z,14.61
2022-10-24T01:37:37.228Z,14.62
2022-10-24T01:38:37.198Z,14.60
2022-10-24T01:39:37.194Z,14.61
2022-10-24T01:40:37.161Z,14.61
2022-10-24T01:41:37.144Z,14.67
2022-10-24T01:42:37.131Z,14.68
2022-10-24T01:43:37.134Z,14.69
2022-10-24T01:44:37.098Z,14.67
2022-10-24T01:45:37.099Z,14.68
2022-10-24T01:46:37.073Z,14.68
2022-10-24T01:47:37.062Z,14.68
2022-10-24T01:48:37.055Z,14.69
2022-10-24T01:49:37.034Z,14.71
2022-10-24T01:50:37.987Z,14.72
2022-10-24T01:51:37.017Z,14.72
2022-10-24T01:52:36.993Z,14.69
2022-10-24T01:53:36.996Z,14.71
2022-10-24T01:54:36.981Z,14.69
2022-10-24T01:55:36.955Z,14.67
2022-10-24T01:56:36.953Z,14.67
2022-10-24T01:57:36.938Z,14.68
2022-10-24T01:58:36.922Z,14.67
2022-10-24T01:59:36.913Z,14.71
2022-10-24T02:00:37.019Z,14.78
2022-10-24T02:01:36.922Z,14.81
2022-10-24T02:02:36.858Z,14.78
2022-10-24T02:03:37.193Z,14.81
2022-10-24T02:04:36.834Z,14.75
2022-10-24T02:05:36.830Z,14.74
2022-10-24T02:06:36.814Z,14.78
2022-10-24T02:07:36.798Z,14.80
2022-10-24T02:08:36.796Z,14.78
2022-10-24T02:09:36.795Z,14.75
2022-10-24T02:10:36.755Z,14.75
2022-10-24T02:11:36.738Z,14.81
2022-10-24T02:12:36.733Z,14.78
2022-10-24T02:13:36.723Z,14.72
2022-10-24T02:14:36.738Z,14.71
2022-10-24T02:15:36.684Z,14.69
2022-10-24T02:16:36.688Z,14.71
2022-10-24T02:17:36.664Z,14.74
2022-10-24T02:18:36.657Z,14.74
2022-10-24T02:19:36.649Z,14.74
2022-10-24T02:20:36.653Z,14.75
2022-10-24T02:21:36.618Z,14.74
2022-10-24T02:22:36.607Z,14.71
2022-10-24T02:23:36.586Z,14.72
2022-10-24T02:24:36.600Z,14.71
2022-10-24T02:25:36.634Z,14.71
2022-10-24T02:26:36.548Z,14.69
2022-10-24T02:27:36.523Z,14.71
2022-10-24T02:28:36.529Z,14.68
2022-10-24T02:29:36.514Z,14.65
2022-10-24T02:30:36.500Z,14.61
2022-10-24T02:31:36.477Z,14.60
2022-10-24T02:32:36.463Z,14.64
2022-10-24T02:33:36.453Z,14.65
2022-10-24T02:34:36.513Z,14.67
2022-10-24T02:35:36.434Z,14.65
2022-10-24T02:36:36.417Z,14.67
2022-10-24T02:37:36.399Z,14.65
2022-10-24T02:38:36.398Z,14.62
2022-10-24T02:39:36.472Z,14.61
2022-10-24T02:40:36.368Z,14.60
2022-10-24T02:41:36.349Z,14.60
2022-10-24T02:42:36.341Z,14.56
2022-10-24T02:43:36.330Z,14.57
2022-10-24T02:44:36.324Z,14.57
2022-10-24T02:45:36.293Z,14.54
2022-10-24T02:46:36.277Z,14.52
2022-10-24T02:47:36.284Z,14.50
2022-10-24T02:48:36.255Z,14.50
2022-10-24T02:49:36.263Z,14.50
2022-10-24T02:50:36.246Z,14.50
2022-10-24T02:51:36.217Z,14.47
2022-10-24T02:52:36.209Z,14.47
2022-10-24T02:53:36.183Z,14.44
2022-10-24T02:54:36.188Z,14.44
2022-10-24T02:55:36.174Z,14.43
2022-10-24T02:56:36.175Z,14.42
2022-10-24T02:57:36.143Z,14.43
2022-10-24T02:58:36.139Z,14.47
2022-10-24T02:59:36.111Z,14.46
2022-10-24T03:00:36.152Z,14.44
2022-10-24T03:01:36.118Z,14.44
2022-10-24T03:02:36.082Z,14.44
2022-10-24T03:03:36.057Z,14.44
2022-10-24T03:04:36.053Z,14.47
2022-10-24T03:05:36.033Z,14.47
2022-10-24T03:06:36.040Z,14.49
2022-10-24T03:07:36.027Z,14.50
2022-10-24T03:08:36.009Z,14.52
2022-10-24T03:09:35.976Z,14.52
2022-10-24T03:10:35.961Z,14.50
2022-10-24T03:11:35.975Z,14.53
2022-10-24T03:12:35.936Z,14.52
2022-10-24T03:13:35.922Z,14.50
2022-10-24T03:14:35.934Z,14.52
2022-10-24T03:15:35.961Z,14.54
2022-10-24T03:16:35.886Z,14.54
2022-10-24T03:17:35.871Z,14.56
2022-10-24T03:18:35.860Z,14.56
2022-10-24T03:19:35.845Z,14.53
2022-10-24T03:20:35.841Z,14.53
2022-10-24T03:21:35.827Z,14.53
2022-10-24T03:22:35.820Z,14.50
2022-10-24T03:23:35.797Z,14.50
2022-10-24T03:24:43.774Z,14.53
2022-10-24T03:25:36.777Z,14.53
2022-10-24T03:26:35.762Z,14.53
2022-10-24T03:27:35.738Z,14.54
2022-10-24T03:28:35.727Z,14.54
2022-10-24T03:29:35.744Z,14.56
2022-10-24T03:30:35.697Z,14.57
2022-10-24T03:31:35.691Z,14.57
2022-10-24T03:32:35.680Z,14.57
2022-10-24T03:33:35.654Z,14.61
2022-10-24T03:34:35.653Z,14.64
2022-10-24T03:35:35.637Z,14.67
2022-10-24T03:36:35.620Z,14.67
2022-10-24T03:37:35.625Z,14.68
2022-10-24T03:38:35.588Z,14.69
2022-10-24T03:39:35.577Z,14.69
2022-10-24T03:40:39.443Z,14.71
2022-10-24T03:41:35.552Z,14.71
2022-10-24T03:42:35.551Z,14.71
2022-10-24T03:43:35.526Z,14.71
2022-10-24T03:44:35.512Z,14.68
2022-10-24T03:45:35.507Z,14.67
2022-10-24T03:46:35.484Z,14.68
2022-10-24T03:47:35.471Z,14.68
2022-10-24T03:48:35.478Z,14.68
2022-10-24T03:49:35.451Z,14.65
2022-10-24T03:50:35.452Z,14.64
2022-10-24T03:51:35.426Z,14.65
2022-10-24T03:52:35.399Z,14.67
2022-10-24T03:53:35.388Z,14.68
2022-10-24T03:54:35.393Z,14.68
2022-10-24T03:55:35.368Z,14.69
2022-10-24T03:56:35.352Z,14.68
2022-10-24T03:57:35.343Z,14.68
2022-10-24T03:58:35.341Z,14.67
2022-10-24T03:59:35.308Z,14.69
2022-10-24T04:00:35.374Z,14.68
2022-10-24T04:01:35.378Z,14.68
2022-10-24T04:02:37.008Z,14.67
2022-10-24T04:03:35.293Z,14.67
2022-10-24T04:04:35.247Z,14.67
2022-10-24T04:05:35.295Z,14.67
2022-10-24T04:06:36.544Z,14.68
2022-10-24T04:07:35.222Z,14.64
2022-10-24T04:08:35.200Z,14.64
2022-10-24T04:09:35.176Z,14.67
2022-10-24T04:10:35.192Z,14.65
2022-10-24T04:11:35.172Z,14.65
2022-10-24T04:12:35.151Z,14.64
2022-10-24T04:13:35.132Z,14.64
2022-10-24T04:14:35.109Z,14.62
2022-10-24T04:15:35.113Z,14.61
2022-10-24T04:16:35.109Z,14.56
2022-10-24T04:17:35.082Z,14.56
2022-10-24T04:18:35.068Z,14.56
2022-10-24T04:19:35.087Z,14.57
2022-10-24T04:20:35.049Z,14.54
2022-10-24T04:21:35.031Z,14.54
2022-10-24T04:22:35.011Z,14.52
2022-10-24T04:23:34.989Z,14.50
2022-10-24T04:24:35.009Z,14.52
2022-10-24T04:25:34.979Z,14.50
2022-10-24T04:26:34.960Z,14.50
2022-10-24T04:27:34.953Z,14.52
2022-10-24T04:28:34.935Z,14.50
2022-10-24T04:29:34.915Z,14.50
2022-10-24T04:30:34.974Z,14.46
2022-10-24T04:31:34.894Z,14.47
2022-10-24T04:32:34.886Z,14.46
2022-10-24T04:33:34.874Z,14.46
2022-10-24T04:34:34.854Z,14.46
2022-10-24T04:35:34.862Z,14.47
2022-10-24T04:36:34.837Z,14.52
2022-10-24T04:37:34.841Z,14.50
2022-10-24T04:38:34.860Z,14.50
2022-10-24T04:39:34.856Z,14.49
2022-10-24T04:40:34.842Z,14.47
2022-10-24T04:41:34.833Z,14.52
2022-10-24T04:42:34.823Z,14.50
2022-10-24T04:43:34.740Z,14.50
2022-10-24T04:44:34.758Z,14.49
2022-10-24T04:45:34.738Z,14.50
2022-10-24T04:46:34.730Z,14.50
2022-10-24T04:47:34.762Z,14.49
2022-10-24T04:48:34.754Z,14.49
2022-10-24T04:49:34.641Z,14.50
2022-10-24T04:50:34.637Z,14.47
2022-10-24T04:51:34.646Z,14.44
2022-10-24T04:52:34.617Z,14.44
2022-10-24T04:53:34.596Z,14.43
2022-10-24T04:54:34.604Z,14.43
2022-10-24T04:55:34.662Z,14.43
2022-10-24T04:56:34.580Z,14.46
2022-10-24T04:57:34.537Z,14.44
2022-10-24T04:58:34.530Z,14.50
2022-10-24T04:59:34.527Z,14.53
2022-10-24T05:00:34.515Z,14.56
2022-10-24T05:01:34.539Z,14.61
2022-10-24T05:02:34.532Z,14.60
2022-10-24T05:03:34.460Z,14.61
2022-10-24T05:04:34.466Z,14.61
2022-10-24T05:05:34.443Z,14.62
2022-10-24T05:06:34.451Z,14.61
2022-10-24T05:07:34.420Z,14.67
2022-10-24T05:08:34.401Z,14.67
2022-10-24T05:09:34.383Z,14.68
2022-10-24T05:10:34.385Z,14.69
2022-10-24T05:11:34.380Z,14.71
2022-10-24T05:12:34.351Z,14.72
2022-10-24T05:13:36.664Z,14.78
2022-10-24T05:14:34.340Z,14.78
2022-10-24T05:15:34.303Z,14.75
2022-10-24T05:16:34.312Z,14.74
2022-10-24T05:17:34.286Z,14.78
2022-10-24T05:18:34.266Z,14.78
2022-10-24T05:19:34.253Z,14.78
2022-10-24T05:20:34.319Z,14.75
2022-10-24T05:21:34.241Z,14.80
2022-10-24T05:22:34.210Z,14.78
2022-10-24T05:23:34.219Z,14.78
2022-10-24T05:24:34.192Z,14.81
2022-10-24T05:25:34.181Z,14.86
2022-10-24T05:26:34.180Z,14.86
2022-10-24T05:27:34.144Z,14.91
2022-10-24T05:28:34.144Z,14.91
2022-10-24T05:29:34.118Z,14.91
2022-10-24T05:30:34.117Z,14.91
2022-10-24T05:31:34.192Z,14.88
2022-10-24T05:32:37.270Z,14.86
2022-10-24T05:33:35.064Z,14.91
2022-10-24T05:34:34.051Z,14.93
2022-10-24T05:35:34.044Z,14.93
2022-10-24T05:36:34.062Z,14.93
2022-10-24T05:37:34.019Z,14.90
2022-10-24T05:38:34.017Z,14.87
2022-10-24T05:39:33.983Z,14.84
2022-10-24T05:40:33.980Z,14.86
2022-10-24T05:41:33.990Z,14.90
2022-10-24T05:42:33.967Z,14.91
2022-10-24T05:43:33.931Z,14.93
2022-10-24T05:44:33.930Z,14.94
2022-10-24T05:45:33.919Z,14.95
2022-10-24T05:46:33.913Z,14.93
2022-10-24T05:47:33.886Z,14.93
2022-10-24T05:48:33.879Z,14.94
2022-10-24T05:49:33.858Z,14.99
2022-10-24T05:50:33.848Z,14.99
2022-10-24T05:51:33.855Z,14.99
2022-10-24T05:52:33.833Z,14.99
2022-10-24T05:53:33.805Z,15.01
2022-10-24T05:54:42.725Z,15.06
2022-10-24T05:55:34.783Z,15.12
2022-10-24T05:56:33.792Z,15.13
2022-10-24T05:57:33.754Z,15.13
2022-10-24T05:58:33.734Z,15.15
2022-10-24T05:59:33.724Z,15.13
2022-10-24T06:00:33.707Z,15.15
2022-10-24T06:01:33.787Z,15.15
2022-10-24T06:02:33.747Z,15.15
2022-10-24T06:03:33.666Z,15.15
2022-10-24T06:04:33.657Z,15.13
2022-10-24T06:05:33.649Z,15.12
2022-10-24T06:06:33.669Z,15.13
2022-10-24T06:07:33.620Z,15.17
2022-10-24T06:08:33.598Z,15.17
2022-10-24T06:09:33.579Z,15.17
2022-10-24T06:10:33.583Z,15.13
2022-10-24T06:11:33.568Z,15.13
2022-10-24T06:12:33.558Z,15.17
2022-10-24T06:13:36.038Z,15.19
2022-10-24T06:14:33.525Z,15.17
2022-10-24T06:15:33.509Z,15.15
2022-10-24T06:16:33.496Z,15.12
2022-10-24T06:17:33.511Z,15.11
2022-10-24T06:18:33.498Z,15.08
2022-10-24T06:19:33.460Z,15.06
2022-10-24T06:20:33.445Z,15.03
2022-10-24T06:21:33.436Z,14.98
2022-10-24T06:22:33.443Z,14.95
2022-10-24T06:23:33.403Z,14.90
2022-10-24T06:24:33.399Z,14.90
2022-10-24T06:25:33.386Z,14.91
2022-10-24T06:26:33.370Z,14.87
2022-10-24T06:27:33.380Z,14.90
2022-10-24T06:28:33.331Z,14.88
2022-10-24T06:29:36.020Z,14.88
2022-10-24T06:30:33.322Z,14.88
2022-10-24T06:31:33.311Z,14.87
2022-10-24T06:32:33.300Z,14.83
2022-10-24T06:33:33.275Z,14.86
2022-10-24T06:34:33.265Z,14.91
2022-10-24T06:35:33.257Z,14.90
2022-10-24T06:36:33.285Z,14.90
2022-10-24T06:37:33.249Z,14.90
2022-10-24T06:38:33.216Z,14.91
2022-10-24T06:39:33.205Z,14.91
2022-10-24T06:40:33.183Z,14.93
2022-10-24T06:41:33.168Z,14.91
2022-10-24T06:42:33.160Z,14.88
2022-10-24T06:43:33.142Z,14.87
2022-10-24T06:44:33.142Z,14.88
2022-10-24T06:45:33.181Z,14.88
2022-10-24T06:46:33.101Z,14.90
2022-10-24T06:47:33.103Z,14.91
2022-10-24T06:48:33.070Z,14.91
2022-10-24T06:49:33.058Z,14.91
2022-10-24T06:50:33.049Z,14.90
2022-10-24T06:51:33.028Z,14.87
2022-10-24T06:52:33.043Z,14.86
2022-10-24T06:53:33.006Z,14.87
2022-10-24T06:54:33.002Z,14.87
2022-10-24T06:55:32.980Z,14.90
2022-10-24T06:56:33.004Z,14.90
2022-10-24T06:57:32.959Z,14.91
2022-10-24T06:58:32.935Z,14.90
2022-10-24T06:59:32.925Z,14.90
2022-10-24T07:00:32.933Z,14.90
2022-10-24T07:01:33.008Z,14.90
2022-10-24T07:02:32.904Z,14.93
2022-10-24T07:03:32.872Z,14.91
2022-10-24T07:04:32.874Z,14.91
2022-10-24T07:05:32.846Z,14.93
2022-10-24T07:06:32.826Z,14.94
2022-10-24T07:07:32.837Z,14.95
2022-10-24T07:08:32.820Z,14.98
2022-10-24T07:09:32.795Z,14.99
2022-10-24T07:10:32.789Z,14.99
2022-10-24T07:11:32.775Z,14.99
2022-10-24T07:12:32.761Z,15.02
2022-10-24T07:13:32.750Z,15.05
2022-10-24T07:14:32.725Z,15.03
2022-10-24T07:15:32.730Z,15.05
2022-10-24T07:16:32.705Z,15.05
2022-10-24T07:17:32.691Z,15.06
2022-10-24T07:18:32.666Z,15.06
2022-10-24T07:19:35.172Z,15.11
2022-10-24T07:20:32.708Z,15.12
2022-10-24T07:21:32.640Z,15.15
2022-10-24T07:22:33.324Z,15.20
2022-10-24T07:23:32.626Z,15.23
2022-10-24T07:24:32.598Z,15.24
2022-10-24T07:25:32.578Z,15.26
2022-10-24T07:26:32.582Z,15.26
2022-10-24T07:27:32.566Z,15.26
2022-10-24T07:28:32.537Z,15.27
2022-10-24T07:29:32.534Z,15.31
2022-10-24T07:30:32.510Z,15.35
2022-10-24T07:31:32.521Z,15.35
2022-10-24T07:32:32.494Z,15.39
2022-10-24T07:33:32.484Z,15.42
2022-10-24T07:34:32.457Z,15.42
2022-10-24T07:35:32.464Z,15.43
2022-10-24T07:36:32.425Z,15.43
2022-10-24T07:37:32.445Z,15.42
2022-10-24T07:38:32.399Z,15.41
2022-10-24T07:39:32.401Z,15.42
2022-10-24T07:40:32.489Z,15.42
2022-10-24T07:41:32.363Z,15.43
2022-10-24T07:42:32.410Z,15.43
2022-10-24T07:43:32.369Z,15.46
2022-10-24T07:44:32.323Z,15.48
2022-10-24T07:45:32.323Z,15.51
2022-10-24T07:46:32.407Z,15.52
2022-10-24T07:47:32.297Z,15.54
2022-10-24T07:48:32.267Z,15.56
2022-10-24T07:49:33.730Z,15.60
2022-10-24T07:50:32.301Z,15.61
2022-10-24T07:51:32.243Z,15.66
2022-10-24T07:52:32.223Z,15.67
2022-10-24T07:53:32.497Z,15.70
2022-10-24T07:54:36.161Z,15.70
2022-10-24T07:55:33.182Z,15.74
2022-10-24T07:56:32.215Z,15.76
2022-10-24T07:57:32.212Z,15.81
2022-10-24T07:58:32.136Z,15.85
2022-10-24T07:59:41.879Z,15.88
2022-10-24T08:00:33.133Z,15.89
2022-10-24T08:01:32.124Z,15.94
2022-10-24T08:02:32.098Z,15.99
2022-10-24T08:03:32.079Z,15.99
2022-10-24T08:04:32.129Z,16.00
2022-10-24T08:05:32.057Z,16.01
2022-10-24T08:06:32.057Z,16.07
2022-10-24T08:07:32.048Z,16.15
2022-10-24T08:08:36.908Z,16.37
2022-10-24T08:09:32.995Z,16.63
2022-10-24T08:10:32.039Z,16.85
2022-10-24T08:11:31.973Z,17.00
2022-10-24T08:12:31.985Z,17.14
2022-10-24T08:13:31.977Z,17.07
2022-10-24T08:14:32.047Z,16.95
2022-10-24T08:15:31.920Z,16.71
2022-10-24T08:16:31.909Z,16.60
2022-10-24T08:17:31.988Z,16.55
2022-10-24T08:18:34.656Z,16.52
2022-10-24T08:19:32.872Z,16.48
2022-10-24T08:20:31.856Z,16.42
2022-10-24T08:21:31.908Z,16.41
2022-10-24T08:22:31.846Z,16.44
2022-10-24T08:23:31.816Z,16.48
2022-10-24T08:24:31.802Z,16.45
2022-10-24T08:25:31.800Z,16.45
2022-10-24T08:26:31.768Z,16.44
2022-10-24T08:27:31.862Z,16.49
2022-10-24T08:28:31.742Z,16.49
2022-10-24T08:29:31.746Z,16.50
2022-10-24T08:30:31.770Z,16.49
2022-10-24T08:31:31.707Z,16.50
2022-10-24T08:32:31.700Z,16.49
2022-10-24T08:33:31.677Z,16.52
2022-10-24T08:34:31.677Z,16.52
2022-10-24T08:35:31.773Z,16.56
2022-10-24T08:36:31.637Z,16.55
2022-10-24T08:37:31.678Z,16.56
2022-10-24T08:38:31.635Z,16.62
2022-10-24T08:39:31.623Z,16.63
2022-10-24T08:40:31.577Z,16.67
2022-10-24T08:41:31.575Z,16.73
2022-10-24T08:42:31.551Z,16.77
2022-10-24T08:43:31.545Z,16.75
2022-10-24T08:44:31.535Z,16.75
2022-10-24T08:45:31.523Z,16.78
2022-10-24T08:46:31.495Z,16.80
2022-10-24T08:47:31.537Z,16.81
2022-10-24T08:48:31.470Z,16.78
2022-10-24T08:49:31.477Z,16.81
2022-10-24T08:50:31.432Z,16.85
2022-10-24T08:51:31.432Z,16.88
2022-10-24T08:52:31.424Z,16.88
2022-10-24T08:53:31.465Z,16.93
2022-10-24T08:54:31.386Z,16.92
2022-10-24T08:55:48.231Z,16.95
2022-10-24T08:56:32.365Z,16.95
2022-10-24T08:57:31.371Z,16.93
2022-10-24T08:58:31.370Z,16.98
2022-10-24T08:59:31.318Z,17.04
2022-10-24T09:00:31.303Z,17.10
2022-10-24T09:01:31.431Z,17.14
2022-10-24T09:02:31.554Z,17.13
2022-10-24T09:03:51.198Z,17.15
2022-10-24T09:04:32.251Z,17.18
2022-10-24T09:05:31.329Z,17.20
2022-10-24T09:06:31.223Z,17.20
2022-10-24T09:07:31.225Z,17.25
2022-10-24T09:08:31.195Z,17.26
2022-10-24T09:09:31.251Z,17.29
2022-10-24T09:10:31.163Z,17.29
2022-10-24T09:11:31.165Z,17.32
2022-10-24T09:12:31.157Z,17.35
2022-10-24T09:13:31.148Z,17.44
2022-10-24T09:14:31.167Z,17.46
2022-10-24T09:15:31.170Z,17.44
2022-10-24T09:16:31.091Z,17.47
2022-10-24T09:17:31.098Z,17.46
2022-10-24T09:18:31.055Z,17.48
2022-10-24T09:19:31.137Z,17.53
2022-10-24T09:20:31.034Z,17.55
2022-10-24T09:21:31.026Z,17.57
2022-10-24T09:22:31.054Z,17.55
2022-10-24T09:23:31.060Z,17.57
2022-10-24T09:24:31.005Z,17.55
2022-10-24T09:25:30.986Z,17.62
2022-10-24T09:26:30.953Z,17.66
2022-10-24T09:27:30.988Z,17.67
2022-10-24T09:28:30.938Z,17.69
2022-10-24T09:29:30.921Z,17.79
2022-10-24T09:30:33.263Z,17.78
2022-10-24T09:31:30.909Z,17.76
2022-10-24T09:32:30.899Z,17.79
2022-10-24T09:33:30.928Z,17.85
2022-10-24T09:34:30.848Z,17.84
2022-10-24T09:35:30.836Z,17.89
2022-10-24T09:36:30.908Z,17.95
2022-10-24T09:37:34.282Z,18.04
2022-10-24T09:38:31.818Z,18.22
2022-10-24T09:39:30.822Z,18.28
2022-10-24T09:40:30.772Z,18.22
2022-10-24T09:41:30.760Z,18.36
2022-10-24T09:42:30.761Z,18.34
2022-10-24T09:43:30.754Z,18.28
2022-10-24T09:44:30.736Z,18.37
2022-10-24T09:45:30.708Z,18.44
2022-10-24T09:46:30.701Z,18.46
2022-10-24T09:47:30.747Z,18.47
2022-10-24T09:48:30.751Z,18.44
2022-10-24T09:49:30.653Z,18.47
2022-10-24T09:50:30.644Z,18.49
2022-10-24T09:51:30.628Z,18.50
2022-10-24T09:52:30.669Z,18.54
2022-10-24T09:53:30.722Z,18.61
2022-10-24T09:54:30.583Z,18.72
2022-10-24T09:55:30.577Z,18.86
2022-10-24T09:56:30.559Z,18.92
2022-10-24T09:57:31.598Z,18.98
2022-10-24T09:58:30.539Z,19.05
2022-10-24T09:59:30.521Z,19.17
2022-10-24T10:00:30.537Z,19.25
2022-10-24T10:01:30.631Z,19.32
2022-10-24T10:02:30.531Z,19.36
2022-10-24T10:03:30.514Z,19.35
2022-10-24T10:04:30.467Z,19.28
2022-10-24T10:05:30.442Z,19.24
2022-10-24T10:06:30.421Z,19.29
2022-10-24T10:07:30.441Z,19.40
2022-10-24T10:08:30.403Z,19.35
2022-10-24T10:09:30.389Z,19.42
2022-10-24T10:10:30.367Z,19.51
2022-10-24T10:11:30.372Z,19.50
2022-10-24T10:12:30.392Z,19.53
2022-10-24T10:13:30.336Z,19.39
2022-10-24T10:14:30.321Z,19.39
2022-10-24T10:15:30.334Z,19.46
2022-10-24T10:16:30.387Z,19.50
2022-10-24T10:17:30.289Z,19.40
2022-10-24T10:18:30.270Z,19.43
2022-10-24T10:19:30.259Z,19.57
2022-10-24T10:20:30.273Z,19.69
2022-10-24T10:21:30.233Z,19.66
2022-10-24T10:22:30.221Z,19.69
2022-10-24T10:23:30.261Z,19.63
2022-10-24T10:24:30.192Z,19.66
2022-10-24T10:25:30.176Z,19.69
2022-10-24T10:26:30.158Z,19.69
2022-10-24T10:27:30.184Z,19.60
2022-10-24T10:28:30.136Z,19.75
2022-10-24T10:29:30.123Z,19.88
2022-10-24T10:30:30.113Z,19.84
2022-10-24T10:31:30.099Z,19.91
2022-10-24T10:32:30.148Z,19.87
2022-10-24T10:33:30.158Z,19.91
2022-10-24T10:34:30.079Z,20.02
2022-10-24T10:35:30.051Z,20.16
2022-10-24T10:36:30.025Z,20.27
2022-10-24T10:37:30.093Z,20.25
2022-10-24T10:38:30.014Z,20.15
2022-10-24T10:39:29.979Z,19.95
2022-10-24T10:40:29.986Z,19.65
2022-10-24T10:41:29.963Z,19.57
2022-10-24T10:42:29.987Z,19.57
2022-10-24T10:43:29.948Z,19.61
2022-10-24T10:44:29.926Z,19.61
2022-10-24T10:45:29.898Z,19.46
2022-10-24T10:46:29.890Z,19.38
2022-10-24T10:47:29.887Z,19.42
2022-10-24T10:48:29.876Z,19.31
2022-10-24T10:49:29.862Z,19.20
2022-10-24T10:50:29.837Z,19.13
2022-10-24T10:51:29.819Z,19.05
2022-10-24T10:52:29.825Z,18.95
2022-10-24T10:53:29.804Z,18.92
2022-10-24T10:54:29.802Z,18.94
2022-10-24T10:55:29.774Z,18.95
2022-10-24T10:56:29.754Z,18.99
2022-10-24T10:57:29.741Z,19.05
2022-10-24T10:58:29.828Z,18.99
2022-10-24T10:59:29.780Z,18.91
2022-10-24T11:00:29.706Z,18.91
2022-10-24T11:01:29.726Z,18.92
2022-10-24T11:02:29.854Z,18.87
2022-10-24T11:03:29.683Z,18.92
2022-10-24T11:04:29.655Z,18.91
2022-10-24T11:05:29.647Z,18.95
2022-10-24T11:06:29.624Z,18.97
2022-10-24T11:07:29.616Z,18.91
2022-10-24T11:08:29.620Z,18.92
2022-10-24T11:09:29.585Z,18.91
2022-10-24T11:10:29.585Z,18.94
2022-10-24T11:11:29.566Z,18.95
2022-10-24T11:12:29.553Z,18.91
2022-10-24T11:13:32.535Z,18.87
2022-10-24T11:14:29.518Z,18.90
2022-10-24T11:15:29.527Z,18.92
2022-10-24T11:16:29.503Z,18.98
2022-10-24T11:17:29.489Z,18.97
2022-10-24T11:18:31.677Z,18.99
2022-10-24T11:19:30.456Z,18.97
2022-10-24T11:20:29.446Z,18.97
2022-10-24T11:21:29.425Z,18.95
2022-10-24T11:22:29.432Z,19.13
2022-10-24T11:23:29.411Z,19.18
2022-10-24T11:24:29.419Z,19.15
2022-10-24T11:25:29.379Z,19.21
2022-10-24T11:26:29.365Z,19.21
2022-10-24T11:27:29.356Z,19.20
2022-10-24T11:28:29.368Z,19.14
2022-10-24T11:29:29.325Z,19.13
2022-10-24T11:30:29.308Z,19.20
2022-10-24T11:31:29.396Z,19.29
2022-10-24T11:32:29.302Z,19.24
2022-10-24T11:33:29.351Z,19.24
2022-10-24T11:34:29.274Z,19.31
2022-10-24T11:35:29.237Z,19.31
2022-10-24T11:36:29.232Z,19.28
2022-10-24T11:37:29.222Z,19.18
2022-10-24T11:38:29.238Z,19.11
2022-10-24T11:39:29.208Z,19.10
2022-10-24T11:41:29.157Z,19.02
2022-10-24T11:42:29.150Z,19.01
2022-10-24T11:43:29.153Z,19.02
2022-10-24T11:44:29.180Z,19.01
2022-10-24T11:45:29.114Z,18.99
2022-10-24T11:46:29.101Z,18.94
2022-10-24T11:47:29.095Z,18.95
2022-10-24T11:48:29.102Z,18.94
2022-10-24T11:49:29.060Z,18.92
2022-10-24T11:50:29.050Z,18.97
2022-10-24T11:51:29.030Z,19.02
2022-10-24T11:52:29.025Z,19.06
2022-10-24T11:53:29.031Z,19.08
2022-10-24T11:54:28.993Z,19.10
2022-10-24T11:55:28.997Z,19.17
2022-10-24T11:56:28.981Z,19.18
2022-10-24T11:57:28.951Z,19.20
2022-10-24T11:58:28.963Z,19.29
2022-10-24T11:59:28.940Z,19.28
2022-10-24T12:00:28.919Z,19.25
2022-10-24T12:01:28.944Z,19.28
2022-10-24T12:02:28.942Z,19.25
2022-10-24T12:03:28.894Z,19.20
2022-10-24T12:04:28.893Z,19.14
2022-10-24T12:05:28.870Z,19.15
2022-10-24T12:06:28.837Z,19.14
2022-10-24T12:07:28.829Z,19.14
2022-10-24T12:08:28.830Z,19.35
2022-10-24T12:09:30.801Z,19.42
2022-10-24T12:10:28.783Z,19.33
2022-10-24T12:11:28.776Z,19.23
2022-10-24T12:12:28.780Z,19.17
2022-10-24T12:13:28.753Z,19.11
2022-10-24T12:14:28.733Z,19.08
2022-10-24T12:15:28.715Z,19.06
2022-10-24T12:16:28.732Z,19.01
2022-10-24T12:17:28.699Z,19.06
2022-10-24T12:18:28.702Z,19.10
2022-10-24T12:19:28.672Z,19.13
2022-10-24T12:20:28.659Z,19.13
2022-10-24T12:21:28.646Z,19.14
2022-10-24T12:22:28.646Z,19.15
2022-10-24T12:23:28.623Z,19.06
2022-10-24T12:24:28.630Z,19.10
2022-10-24T12:25:28.584Z,19.08
2022-10-24T12:26:28.572Z,19.02
2022-10-24T12:27:28.573Z,19.06
2022-10-24T12:28:28.589Z,19.13
2022-10-24T12:29:28.538Z,19.11
2022-10-24T12:30:28.543Z,19.06
2022-10-24T12:31:28.555Z,18.99
2022-10-24T12:32:28.504Z,18.95
2022-10-24T12:33:28.756Z,18.94
2022-10-24T12:34:28.476Z,18.91
2022-10-24T12:35:31.066Z,19.01
2022-10-24T12:36:28.457Z,19.17
2022-10-24T12:37:28.457Z,19.18
2022-10-24T12:38:28.456Z,19.23
2022-10-24T12:39:28.426Z,19.17
2022-10-24T12:40:28.391Z,19.17
2022-10-24T12:41:28.381Z,19.14
2022-10-24T12:42:28.368Z,19.13
2022-10-24T12:43:28.374Z,19.01
2022-10-24T12:44:28.341Z,19.08
2022-10-24T12:45:28.339Z,19.02
2022-10-24T12:46:28.314Z,18.99
2022-10-24T12:47:28.297Z,19.01
2022-10-24T12:48:28.307Z,18.97
2022-10-24T12:49:28.289Z,18.95
2022-10-24T12:50:28.277Z,18.91
2022-10-24T12:51:28.250Z,18.87
2022-10-24T12:52:28.241Z,18.86
2022-10-24T12:53:28.290Z,18.83